New Hope, Minnesota
Current Conditions -  °F | °C
As of 12:05 PM on Thursday 23 Oct 2014 (Local Time) from KMIC Reporting Station
Scattered Clouds Scattered Clouds  
Wind Chill: 60°   Ceiling: Unl
Heat Index: 60°   Visibility: 9mi
Dew Point: 52°   Wind: 5mph
Humidity: 75%   Direction: 250°WSW
Pressure: 29.99"   Gusts: NA
Location:  45.0617°N, 93.3804°W
Report Text: KMIC 231705Z 25004KT 9SM SCT012 16/11 A2999 RMK AO2 T01560111
Loading
Personal Weather Stations






























Interactive Weather Map
Tropical Storm Tracking
New forecast layout! Learn more

10-Day Weather Forecast

Advertisements
Track Severe Weather on mobile